Azkoitia, Spain
Current Conditions -  °F | °C
As of 3:30 PM on Wednesday 22 Oct 2014 (Local Time) from LESO Reporting Station
Scattered Clouds Scattered Clouds  
Wind Chill: 64°   Ceiling: Unl
Heat Index: 64°   Visibility: 6mi
Dew Point: 46°   Wind: 5mph
Humidity: 52%   Direction: 10°N
Pressure: 30.42"   Gusts: NA
Location:  43.18°N, 2.31°W
Report Text: LESO 221330Z 01004KT 310V050 9999 SCT042 18/08 Q1030
Loading
Personal Weather Stations






























Interactive Weather Map
Tropical Storm Tracking
New forecast layout! Learn more

10-Day Weather Forecast

Advertisements
Track Severe Weather on mobile